PWSweather.com
Personal Weather Stations
Station Observations
INORDPAS37
Bondues, BonduesFR 59910

BonduesBonduesFR 59910

Lat: 50.7, Lon: 3.09

Elevation: 102

Station Type: Netatmo

http://bondues.meteoamikuze.com

High Low Average
Temperature 53.2°F11.8°C 37.4°F3.0°C 43.7°F6.5°C
Dew Point 41.7°F5.4°C 26.4°F-3.1°C 32.3°F0.2°C
Winds 7.4 mph 11.9 kmh 1.3 mph 2.1 kmh 4.0 mph SW6.4 kmh SW
Wind Gusts 16.8 mph27.0 kmh 2.5 mph4.0 kmh 9.0 mph14.5 kmh
Humidity 75% 59% 69%
Pressure 30.14 in1020.7 mb 29.72 in1006.4 mb -
Precipitation 0.04 in1.0 mm - -
Hour Temp Dew Point Humidity Winds Wind Gusts Pressure Precip Precip Rate Daily Precip Total
12:05 AM 37.6°F3.1°C 27.0°F-2.8°C 71% 4.3 mph SSE6.9 kmh SSE 10.5 mph16.9 kmh 29.76 in1007.8 mb 0.03 in0.8 mm 0.33 in8.4 mm 0.03 in0.8 mm
12:25 AM 37.4°F3.0°C 26.4°F-3.1°C 70% 5.6 mph S9.0 kmh S 16.8 mph27.0 kmh 29.75 in1007.5 mb 0.02 in0.5 mm 0.00 in0.0 mm 0.03 in0.8 mm
12:42 AM 37.6°F3.1°C 27.0°F-2.8°C 71% 5.6 mph S9.0 kmh S 11.9 mph19.2 kmh 29.75 in1007.5 mb 0.01 in0.3 mm 0.00 in0.0 mm 0.00 in0.0 mm
01:02 AM 37.6°F3.1°C 27.0°F-2.8°C 71% 4.3 mph S6.9 kmh S 10.5 mph16.9 kmh 29.75 in1007.5 mb 0.00 in0.0 mm 0.00 in0.0 mm 0.00 in0.0 mm
01:22 AM 37.6°F3.1°C 27.0°F-2.8°C 71% 5.6 mph S9.0 kmh S 12.5 mph20.1 kmh 29.75 in1007.5 mb 0.00 in0.0 mm 0.00 in0.0 mm 0.00 in0.0 mm
01:42 AM 37.6°F3.1°C 27.0°F-2.8°C 71% 4.9 mph S7.9 kmh S 10.5 mph16.9 kmh 29.74 in1007.1 mb 0.00 in0.0 mm 0.00 in0.0 mm 0.01 in0.3 mm
02:02 AM 37.8°F3.2°C 27.1°F-2.7°C 71% 5.6 mph S9.0 kmh S 12.5 mph20.1 kmh 29.73 in1006.8 mb 0.01 in0.3 mm 0.01 in0.3 mm 0.01 in0.3 mm
02:35 AM 37.8°F3.2°C 27.1°F-2.7°C 71% 5.6 mph S9.0 kmh S 13.6 mph21.9 kmh 29.73 in1006.8 mb 0.01 in0.3 mm 0.01 in0.3 mm 0.02 in0.5 mm
02:41 AM 37.8°F3.2°C 27.5°F-2.5°C 72% 4.3 mph S6.9 kmh S 10.5 mph16.9 kmh 29.73 in1006.8 mb 0.01 in0.3 mm 0.00 in0.0 mm 0.02 in0.5 mm
03:01 AM 37.9°F3.3°C 27.7°F-2.4°C 72% 4.3 mph S6.9 kmh S 11.2 mph18.0 kmh 29.73 in1006.8 mb 0.01 in0.3 mm 0.00 in0.0 mm 0.02 in0.5 mm
03:22 AM 37.9°F3.3°C 27.7°F-2.4°C 72% 4.3 mph SSW6.9 kmh SSW 9.4 mph15.1 kmh 29.74 in1007.1 mb 0.01 in0.3 mm 0.00 in0.0 mm 0.02 in0.5 mm
03:42 AM 38.1°F3.4°C 27.9°F-2.3°C 72% 4.3 mph S6.9 kmh S 10.5 mph16.9 kmh 29.72 in1006.4 mb 0.01 in0.3 mm 0.00 in0.0 mm 0.02 in0.5 mm
04:03 AM 38.3°F3.5°C 28.4°F-2.0°C 73% 4.3 mph S6.9 kmh S 10.5 mph16.9 kmh 29.73 in1006.8 mb 0.00 in0.0 mm 0.00 in0.0 mm 0.02 in0.5 mm
04:23 AM 38.3°F3.5°C 28.4°F-2.0°C 73% 3.8 mph SSW6.1 kmh SSW 8.7 mph14.0 kmh 29.73 in1006.8 mb 0.00 in0.0 mm 0.00 in0.0 mm 0.03 in0.8 mm
04:43 AM 38.7°F3.7°C 28.8°F-1.8°C 73% 4.9 mph SSW7.9 kmh SSW 9.4 mph15.1 kmh 29.73 in1006.8 mb 0.00 in0.0 mm 0.00 in0.0 mm 0.03 in0.8 mm
05:03 AM 38.8°F3.8°C 28.9°F-1.7°C 73% 3.8 mph S6.1 kmh S 9.4 mph15.1 kmh 29.72 in1006.4 mb 0.00 in0.0 mm 0.00 in0.0 mm 0.03 in0.8 mm
05:23 AM 38.8°F3.8°C 28.6°F-1.9°C 72% 3.8 mph S6.1 kmh S 10.5 mph16.9 kmh 29.73 in1006.8 mb 0.01 in0.3 mm 0.01 in0.3 mm 0.04 in1.0 mm
05:43 AM 39.0°F3.9°C 29.1°F-1.6°C 73% 4.3 mph S6.9 kmh S 11.9 mph19.2 kmh 29.74 in1007.1 mb 0.01 in0.3 mm 0.00 in0.0 mm 0.04 in1.0 mm
06:03 AM 39.4°F4.1°C 29.5°F-1.4°C 73% 3.1 mph SSW5.0 kmh SSW 8.1 mph13.0 kmh 29.74 in1007.1 mb 0.01 in0.3 mm 0.00 in0.0 mm 0.04 in1.0 mm
06:24 AM 39.6°F4.2°C 29.7°F-1.3°C 73% 3.1 mph SSW5.0 kmh SSW 7.4 mph11.9 kmh 29.75 in1007.5 mb 0.00 in0.0 mm 0.00 in0.0 mm 0.04 in1.0 mm
06:44 AM 39.7°F4.3°C 29.8°F-1.2°C 73% 3.8 mph SSW6.1 kmh SSW 8.1 mph13.0 kmh 29.74 in1007.1 mb 0.00 in0.0 mm 0.00 in0.0 mm 0.04 in1.0 mm
07:04 AM 40.1°F4.5°C 30.2°F-1.0°C 73% 3.1 mph SW5.0 kmh SW 8.7 mph14.0 kmh 29.75 in1007.5 mb 0.00 in0.0 mm 0.00 in0.0 mm 0.04 in1.0 mm
07:24 AM 40.5°F4.7°C 30.6°F-0.8°C 73% 4.3 mph SW6.9 kmh SW 9.8 mph15.8 kmh 29.75 in1007.5 mb 0.00 in0.0 mm 0.00 in0.0 mm 0.04 in1.0 mm
07:44 AM 40.6°F4.8°C 31.1°F-0.5°C 74% 3.1 mph SSW5.0 kmh SSW 8.1 mph13.0 kmh 29.75 in1007.5 mb 0.00 in0.0 mm 0.00 in0.0 mm 0.04 in1.0 mm
08:05 AM 41.0°F5.0°C 31.5°F-0.3°C 74% 3.1 mph SW5.0 kmh SW 11.2 mph18.0 kmh 29.77 in1008.1 mb 0.00 in0.0 mm 0.00 in0.0 mm 0.04 in1.0 mm
08:24 AM 41.4°F5.2°C 31.8°F-0.1°C 74% 3.8 mph SW6.1 kmh SW 11.2 mph18.0 kmh 29.78 in1008.5 mb 0.00 in0.0 mm 0.00 in0.0 mm 0.04 in1.0 mm
08:45 AM 41.9°F5.5°C 32.4°F0.2°C 74% 3.8 mph SW6.1 kmh SW 9.4 mph15.1 kmh 29.78 in1008.5 mb 0.00 in0.0 mm 0.00 in0.0 mm 0.04 in1.0 mm
09:05 AM 42.3°F5.7°C 32.7°F0.4°C 74% 3.8 mph SW6.1 kmh SW 8.1 mph13.0 kmh 29.79 in1008.8 mb 0.00 in0.0 mm 0.00 in0.0 mm 0.04 in1.0 mm
09:25 AM 42.8°F6.0°C 33.1°F0.6°C 74% 3.8 mph SW6.1 kmh SW 8.1 mph13.0 kmh 29.80 in1009.1 mb 0.00 in0.0 mm 0.00 in0.0 mm 0.04 in1.0 mm
09:45 AM 43.3°F6.3°C 33.6°F0.9°C 74% 4.3 mph SW6.9 kmh SW 8.7 mph14.0 kmh 29.80 in1009.1 mb 0.00 in0.0 mm 0.00 in0.0 mm 0.04 in1.0 mm
10:05 AM 43.9°F6.6°C 34.2°F1.2°C 74% 3.1 mph SW5.0 kmh SW 8.7 mph14.0 kmh 29.81 in1009.5 mb 0.00 in0.0 mm 0.00 in0.0 mm 0.04 in1.0 mm
10:26 AM 44.6°F7.0°C 34.9°F1.6°C 74% 4.3 mph SW6.9 kmh SW 11.2 mph18.0 kmh 29.82 in1009.8 mb 0.00 in0.0 mm 0.00 in0.0 mm 0.04 in1.0 mm
10:45 AM 45.3°F7.4°C 36.0°F2.2°C 75% 3.8 mph SW6.1 kmh SW 9.8 mph15.8 kmh 29.83 in1010.2 mb 0.00 in0.0 mm 0.00 in0.0 mm 0.04 in1.0 mm
11:06 AM 46.0°F7.8°C 36.7°F2.6°C 75% 5.6 mph SW9.0 kmh SW 10.5 mph16.9 kmh 29.83 in1010.2 mb 0.00 in0.0 mm 0.00 in0.0 mm 0.04 in1.0 mm
11:26 AM 47.1°F8.4°C 37.8°F3.2°C 75% 3.1 mph SW5.0 kmh SW 8.7 mph14.0 kmh 29.84 in1010.5 mb 0.00 in0.0 mm 0.00 in0.0 mm 0.04 in1.0 mm
11:46 AM 48.2°F9.0°C 38.8°F3.8°C 75% 3.8 mph SW6.1 kmh SW 8.7 mph14.0 kmh 29.86 in1011.2 mb 0.00 in0.0 mm 0.00 in0.0 mm 0.04 in1.0 mm
12:06 PM 49.1°F9.5°C 39.6°F4.2°C 75% 4.9 mph SW7.9 kmh SW 10.5 mph16.9 kmh 29.86 in1011.2 mb 0.00 in0.0 mm 0.00 in0.0 mm 0.04 in1.0 mm
12:26 PM 49.8°F9.9°C 40.3°F4.6°C 75% 4.3 mph SW6.9 kmh SW 11.9 mph19.2 kmh 29.86 in1011.2 mb 0.00 in0.0 mm 0.00 in0.0 mm 0.04 in1.0 mm
12:47 PM 51.4°F10.8°C 41.5°F5.3°C 74% 4.9 mph WSW7.9 kmh WSW 11.2 mph18.0 kmh 29.88 in1011.9 mb 0.00 in0.0 mm 0.00 in0.0 mm 0.04 in1.0 mm
01:06 PM 52.0°F11.1°C 41.7°F5.4°C 73% 3.8 mph WSW6.1 kmh WSW 9.4 mph15.1 kmh 29.88 in1011.9 mb 0.00 in0.0 mm 0.00 in0.0 mm 0.04 in1.0 mm
01:27 PM 52.5°F11.4°C 41.4°F5.2°C 71% 3.8 mph WSW6.1 kmh WSW 9.8 mph15.8 kmh 29.89 in1012.2 mb 0.00 in0.0 mm 0.00 in0.0 mm 0.04 in1.0 mm
01:46 PM 52.2°F11.2°C 39.9°F4.4°C 68% 4.9 mph W7.9 kmh W 12.5 mph20.1 kmh 29.90 in1012.5 mb 0.00 in0.0 mm 0.00 in0.0 mm 0.04 in1.0 mm
02:07 PM 52.0°F11.1°C 39.7°F4.3°C 68% 4.9 mph W7.9 kmh W 11.9 mph19.2 kmh 29.91 in1012.9 mb 0.00 in0.0 mm 0.00 in0.0 mm 0.04 in1.0 mm
02:27 PM 52.2°F11.2°C 39.4°F4.1°C 67% 4.3 mph WSW6.9 kmh WSW 14.3 mph23.0 kmh 29.91 in1012.9 mb 0.00 in0.0 mm 0.00 in0.0 mm 0.04 in1.0 mm
02:47 PM 52.3°F11.3°C 39.2°F4.0°C 66% 4.3 mph W6.9 kmh W 9.4 mph15.1 kmh 29.92 in1013.2 mb 0.00 in0.0 mm 0.00 in0.0 mm 0.04 in1.0 mm
03:08 PM 52.7°F11.5°C 38.8°F3.8°C 64% 7.4 mph WSW11.9 kmh WSW 15.0 mph24.1 kmh 29.93 in1013.5 mb 0.00 in0.0 mm 0.00 in0.0 mm 0.04 in1.0 mm
03:27 PM 52.7°F11.5°C 37.9°F3.3°C 62% 6.9 mph W11.1 kmh W 13.6 mph21.9 kmh 29.93 in1013.5 mb 0.00 in0.0 mm 0.00 in0.0 mm 0.04 in1.0 mm
03:48 PM 52.9°F11.6°C 37.8°F3.2°C 61% 6.9 mph WSW11.1 kmh WSW 13.0 mph20.9 kmh 29.94 in1013.9 mb 0.00 in0.0 mm 0.00 in0.0 mm 0.04 in1.0 mm
04:08 PM 53.2°F11.8°C 37.4°F3.0°C 59% 4.9 mph W7.9 kmh W 11.2 mph18.0 kmh 29.95 in1014.2 mb 0.00 in0.0 mm 0.00 in0.0 mm 0.04 in1.0 mm
04:28 PM 52.2°F11.2°C 36.7°F2.6°C 60% 4.3 mph W6.9 kmh W 8.7 mph14.0 kmh 29.96 in1014.6 mb 0.00 in0.0 mm 0.00 in0.0 mm 0.04 in1.0 mm
04:48 PM 50.7°F10.4°C 35.4°F1.9°C 60% 3.8 mph W6.1 kmh W 7.4 mph11.9 kmh 29.97 in1014.9 mb 0.00 in0.0 mm 0.00 in0.0 mm 0.04 in1.0 mm
05:15 PM 50.5°F10.3°C 35.6°F2.0°C 61% 3.8 mph W6.1 kmh W 8.7 mph14.0 kmh 29.97 in1014.9 mb 0.00 in0.0 mm 0.00 in0.0 mm 0.04 in1.0 mm
05:29 PM 49.6°F9.8°C 35.1°F1.7°C 62% 3.1 mph W5.0 kmh W 6.9 mph11.1 kmh 30.00 in1015.9 mb 0.00 in0.0 mm 0.00 in0.0 mm 0.04 in1.0 mm
05:48 PM 48.7°F9.3°C 34.7°F1.5°C 63% 2.5 mph W4.0 kmh W 4.9 mph7.9 kmh 30.00 in1015.9 mb 0.00 in0.0 mm 0.00 in0.0 mm 0.04 in1.0 mm
06:09 PM 47.8°F8.8°C 33.8°F1.0°C 63% 1.8 mph W2.9 kmh W 4.3 mph6.9 kmh 30.01 in1016.3 mb 0.00 in0.0 mm 0.00 in0.0 mm 0.04 in1.0 mm
06:29 PM 46.9°F8.3°C 33.3°F0.7°C 64% 1.3 mph W2.1 kmh W 2.5 mph4.0 kmh 30.02 in1016.6 mb 0.00 in0.0 mm 0.00 in0.0 mm 0.04 in1.0 mm
06:55 PM 46.6°F8.1°C 33.1°F0.6°C 64% 1.3 mph W2.1 kmh W 3.1 mph5.0 kmh 30.03 in1016.9 mb 0.00 in0.0 mm 0.00 in0.0 mm 0.04 in1.0 mm
07:05 PM 45.3°F7.4°C 31.8°F-0.1°C 64% 1.8 mph W2.9 kmh W 4.3 mph6.9 kmh 30.04 in1017.3 mb 0.00 in0.0 mm 0.00 in0.0 mm 0.04 in1.0 mm
07:26 PM 44.6°F7.0°C 31.5°F-0.3°C 65% 2.5 mph WSW4.0 kmh WSW 4.3 mph6.9 kmh 30.05 in1017.6 mb 0.00 in0.0 mm 0.00 in0.0 mm 0.04 in1.0 mm
07:42 PM 44.2°F6.8°C 31.1°F-0.5°C 65% 1.8 mph W2.9 kmh W 4.3 mph6.9 kmh 30.06 in1017.9 mb 0.00 in0.0 mm 0.00 in0.0 mm 0.04 in1.0 mm
08:08 PM 43.7°F6.5°C 30.6°F-0.8°C 65% 1.8 mph W2.9 kmh W 3.8 mph6.1 kmh 30.06 in1017.9 mb 0.00 in0.0 mm 0.00 in0.0 mm 0.04 in1.0 mm
08:27 PM 43.3°F6.3°C 30.4°F-0.9°C 65% 1.8 mph WSW2.9 kmh WSW 3.8 mph6.1 kmh 30.07 in1018.3 mb 0.00 in0.0 mm 0.00 in0.0 mm 0.04 in1.0 mm
08:48 PM 42.8°F6.0°C 30.2°F-1.0°C 66% 1.8 mph W2.9 kmh W 3.1 mph5.0 kmh 30.08 in1018.6 mb 0.00 in0.0 mm 0.00 in0.0 mm 0.04 in1.0 mm
09:08 PM 42.3°F5.7°C 29.7°F-1.3°C 66% 1.8 mph WSW2.9 kmh WSW 4.3 mph6.9 kmh 30.09 in1019.0 mb 0.00 in0.0 mm 0.00 in0.0 mm 0.04 in1.0 mm
09:28 PM 41.5°F5.3°C 28.9°F-1.7°C 66% 1.8 mph WSW2.9 kmh WSW 4.9 mph7.9 kmh 30.09 in1019.0 mb 0.00 in0.0 mm 0.00 in0.0 mm 0.04 in1.0 mm
09:55 PM 41.4°F5.2°C 29.1°F-1.6°C 67% 1.3 mph WSW2.1 kmh WSW 3.8 mph6.1 kmh 30.10 in1019.3 mb 0.00 in0.0 mm 0.00 in0.0 mm 0.04 in1.0 mm
10:04 PM 40.6°F4.8°C 28.4°F-2.0°C 67% 1.3 mph WSW2.1 kmh WSW 2.5 mph4.0 kmh 30.10 in1019.3 mb 0.00 in0.0 mm 0.00 in0.0 mm 0.04 in1.0 mm
10:24 PM 40.1°F4.5°C 28.0°F-2.2°C 67% 1.8 mph SW2.9 kmh SW 4.9 mph7.9 kmh 30.11 in1019.6 mb 0.00 in0.0 mm 0.00 in0.0 mm 0.04 in1.0 mm
10:44 PM 39.9°F4.4°C 28.2°F-2.1°C 68% 1.8 mph WSW2.9 kmh WSW 5.6 mph9.0 kmh 30.12 in1020.0 mb 0.00 in0.0 mm 0.00 in0.0 mm 0.04 in1.0 mm
11:04 PM 39.6°F4.2°C 27.9°F-2.3°C 68% 2.5 mph SW4.0 kmh SW 4.9 mph7.9 kmh 30.12 in1020.0 mb 0.00 in0.0 mm 0.00 in0.0 mm 0.04 in1.0 mm
11:24 PM 39.4°F4.1°C 27.7°F-2.4°C 68% 1.8 mph WSW2.9 kmh WSW 3.8 mph6.1 kmh 30.13 in1020.3 mb 0.00 in0.0 mm 0.00 in0.0 mm 0.04 in1.0 mm
11:45 PM 39.2°F4.0°C 27.9°F-2.3°C 69% 1.8 mph W2.9 kmh W 4.3 mph6.9 kmh 30.14 in1020.7 mb 0.00 in0.0 mm 0.00 in0.0 mm 0.04 in1.0 mm